Huvudsida
METAR-TAF:

METAR-TAF

Flygplatser :

Toulon-Hyères flygplats

Toulon, Frankrike

latitud: 43-06N, longitud: 006-09E, höjd: 3 m

Aktuellt väderrapport

Denna rapport gjordes för 28 minuter sedan, klockan 14:30 UTC
Vind 6 kt från sydväst
Temperatur 20°C
Fuktighet 35%
Tryck 1021 hPa
Sikt 10 km eller mer
Inga moln under 1 500 m eller inga cumulonimbus

METAR: LFTH 091430Z AUTO 22006KT CAVOK 20/04 Q1021 NOSIG

Tid: 16:58 (14:58 UTC)

Väderprognos

Denna rapport gjordes för 6 timmar och 58 minuter sedan, klockan 08:00 UTC
Prognos gäller från 09 kl. 09 UTC till 10 kl. 09 UTC
Vind 3 kt varierande vindriktning
Sikt 10 km eller mer
Inga moln under 1 500 m eller inga cumulonimbus
Blir
från 09 kl. 12 UTC till 09 kl. 14 UTC
Vind 10 kt från sydväst
Blir
från 09 kl. 17 UTC till 09 kl. 19 UTC
Vind 3 kt varierande vindriktning

TAF: LFTH 090800Z 0909/1009 VRB03KT CAVOK BECMG 0912/0914 22010KT BECMG 0917/0919 VRB03KT

Aktuella väderrapporter och prognoser från 4000 flygplatser (METAR- och TAF-rapporter).

De tillgängliga stationerna syns som gula och röda prickar på kartan.

För musen över prickarna för att se namnen på stationerna.

Klicka sedan för att få väderrapporter och prognoser.

För att ändra kartan: Klicka på de gröna knapparna med ett svart kors på för att zooma in; den gröna knappen med ett streck på för att zooma ut; eller på de gröna pilarna för angränsande kartor.


METAR-TAF: